Latest Weather Observations for Roebourne Airport

IDW60801

Issued at 6:03 pm WST Monday 17 December 2018 (issued every 10 minutes, with the page automatically refreshed every 10 minutes)

About weather observations | Map of weather stations | Latest weather observations for WA | Other Formats
Station Details ID: 004090 Name: ROEBOURNE AERO Lat: -20.76 Lon: 117.16 Height: 10.7 m
Data from the previous 72 hours. | See also: Recent months at Roebourne Airport
Date/Time
WST
Temp
°C
App
Temp
°C
Dew
Point
°C
Rel
Hum
%
Delta-T
°C
Wind Press
QNH
hPa
Press
MSL
hPa
Rain since
9am
mm
Dir  Spd
km/h
Gust
km/h
Spd
kts
Gust
kts
17/06:00pm 28.0 22.1 16.6 50 7.1 WNW 43 57 23 31 1005.0 1005.0 0.0
17/05:30pm 29.7 23.7 16.8 45 8.1 W 44 59 24 32 1004.8 1004.8 0.0
17/05:00pm 30.9 25.5 16.1 41 9.3 WNW 39 57 21 31 1004.7 1004.7 0.0
17/04:30pm 31.1 24.7 15.5 39 9.7 WNW 43 54 23 29 1004.5 1004.4 0.0
17/04:00pm 33.1 27.2 15.6 35 11.0 W 41 54 22 29 1004.6 1004.5 0.0
17/03:30pm 32.7 26.6 15.2 34 10.8 WNW 41 54 22 29 1004.6 1004.5 0.0
17/03:15pm 33.3 27.6 15.3 34 11.2 WNW 39 52 21 28 1004.7 1004.7 0.0
17/03:00pm 34.0 29.4 14.5 31 12.0 W 32 44 17 24 1004.9 1004.9 0.0
17/02:30pm 35.8 31.3 8.6 19 15.5 SW 22 33 12 18 1005.3 1005.3 0.0
17/02:00pm 34.7 30.7 9.2 21 14.6 WSW 20 32 11 17 1005.9 1005.9 0.0
17/01:30pm 35.2 31.0 9.6 21 14.7 SW 22 41 12 22 1006.4 1006.4 0.0
17/01:00pm 34.5 30.1 10.4 23 14.0 SW 24 39 13 21 1007.0 1007.0 0.0
17/12:30pm 31.8 27.6 9.9 26 12.5 SW 22 32 12 17 1007.6 1007.6 0.0
17/12:00pm 31.7 27.7 10.4 27 12.2 SW 22 39 12 21 1008.0 1008.0 0.0
17/11:30am 31.4 27.3 10.2 27 12.1 SW 22 41 12 22 1008.4 1008.4 0.0
17/11:00am 31.1 26.3 10.4 28 11.9 SW 26 39 14 21 1008.8 1008.8 0.0
17/10:30am 30.9 26.4 11.3 30 11.4 SSW 26 35 14 19 1009.1 1009.1 0.0
17/10:00am 29.6 24.7 11.2 32 10.6 SSW 28 39 15 21 1009.6 1009.6 0.0
17/09:30am 28.5 23.7 11.6 35 9.7 SSW 28 37 15 20 1009.8 1009.8 0.0
17/09:00am 27.4 21.6 11.4 37 9.2 SSW 33 46 18 25 1009.9 1009.9 0.0
17/08:30am 26.4 20.3 11.7 40 8.4 SSW 35 44 19 24 1009.9 1009.9 0.0
17/08:00am 25.3 18.8 11.8 43 7.7 SSW 37 48 20 26 1009.9 1009.9 0.0
17/07:30am 24.5 19.7 11.5 44 7.3 SSW 28 41 15 22 1009.7 1009.7 0.0
17/07:00am 23.3 17.7 11.4 47 6.7 SW 32 39 17 21 1009.5 1009.5 0.0
17/06:30am 22.5 19.0 10.9 48 6.4 SW 20 28 11 15 1009.4 1009.4 0.0
17/06:00am 21.5 17.2 10.6 50 6.0 SW 24 35 13 19 1009.0 1009.0 0.0
17/05:30am 20.8 16.4 8.8 46 6.3 SW 22 28 12 15 1008.5 1008.5 0.0
17/05:00am 20.7 17.0 8.0 44 6.6 WSW 17 24 9 13 1008.1 1008.1 0.0
17/04:30am 21.2 16.1 7.8 42 6.9 SW 24 32 13 17 1007.9 1007.9 0.0
17/04:00am 21.5 16.7 7.3 40 7.3 WSW 22 32 12 17 1007.6 1007.6 0.0
17/03:30am 21.9 17.1 7.3 39 7.5 WSW 22 32 12 17 1007.5 1007.5 0.0
17/03:00am 22.2 16.9 6.8 37 7.9 WSW 24 32 13 17 1007.3 1007.3 0.0
17/02:30am 22.7 17.0 6.5 35 8.3 WSW 26 33 14 18 1007.1 1007.1 0.0
17/02:00am 23.1 17.8 6.8 35 8.4 WSW 24 35 13 19 1007.0 1007.0 0.0
17/01:30am 23.6 17.5 6.8 34 8.7 WSW 28 41 15 22 1007.0 1007.0 0.0
17/01:00am 24.0 18.0 7.2 34 8.8 WSW 28 37 15 20 1007.0 1007.0 0.0
17/12:30am 23.5 18.4 9.1 40 7.8 WSW 26 33 14 18 1007.2 1007.2 0.0
17/12:00am 23.9 17.9 10.2 42 7.6 WSW 32 41 17 22 1007.3 1007.3 0.0
 
Date/Time
WST
Temp
°C
App
Temp
°C
Dew
Point
°C
Rel
Hum
%
Delta-T
°C
Wind Press
QNH
hPa
Press
MSL
hPa
Rain since
9am
mm
Dir  Spd
km/h
Gust
km/h
Spd
kts
Gust
kts
16/11:30pm 24.1 18.3 10.7 43 7.4 WSW 32 39 17 21 1007.4 1007.4 0.0
16/11:00pm 24.6 18.6 10.8 42 7.7 WSW 33 46 18 25 1007.3 1007.3 0.0
16/10:30pm 25.0 18.5 11.6 43 7.6 WSW 37 52 20 28 1007.3 1007.3 0.0
16/10:00pm 25.2 19.3 12.4 45 7.4 WSW 35 48 19 26 1007.1 1007.1 0.0
16/09:30pm 25.5 19.5 13.4 47 7.1 WSW 37 54 20 29 1007.0 1007.0 0.0
16/09:05pm 25.6 19.5 14.1 49 6.8 W 39 57 21 31 1006.8 1006.8 0.0
16/09:00pm 25.7 18.9 14.2 49 6.8 W 43 57 23 31 1006.8 1006.8 0.0
16/08:30pm 26.0 19.2 14.8 50 6.7 W 44 56 24 30 1006.5 1006.5 0.0
16/08:00pm 26.2 19.7 15.6 52 6.5 WSW 44 63 24 34 1006.1 1006.1 0.0
16/07:56pm 26.3 19.8 15.7 52 6.5 WSW 44 63 24 34 1006.1 1006.1 0.0
16/07:30pm 26.6 19.9 16.2 52 6.4 WSW 46 57 25 31 1005.9 1005.9 0.0
16/07:00pm 27.3 21.8 15.7 49 7.1 WSW 39 52 21 28 1005.4 1005.4 0.0
16/06:30pm 28.2 21.8 15.8 47 7.6 W 44 61 24 33 1004.7 1004.7 0.0
16/06:00pm 29.3 22.0 15.4 42 8.6 W 48 61 26 33 1004.2 1004.1 0.0
16/05:30pm 29.6 23.2 16.8 46 8.0 W 46 63 25 34 1004.0 1003.9 0.0
16/05:00pm 31.6 24.9 16.0 39 9.8 W 46 57 25 31 1003.6 1003.5 0.0
16/04:30pm 31.9 25.1 15.8 38 10.0 W 46 59 25 32 1003.4 1003.3 0.0
16/04:00pm 31.9 25.0 16.6 39 9.7 WNW 48 57 26 31 1003.6 1003.5 0.0
16/03:30pm 33.1 26.8 15.6 35 10.9 WNW 43 57 23 31 1003.7 1003.6 0.0
16/03:00pm 34.3 27.6 15.2 31 11.9 WNW 44 65 24 35 1003.6 1003.5 0.0
16/02:58pm 33.9 26.9 15.4 33 11.5 WNW 46 65 25 35 1003.8 1003.7 0.0
16/02:51pm 33.0 25.5 15.0 33 11.1 WNW 48 65 26 35 1003.6 1003.5 0.0
16/02:34pm 34.5 28.7 12.8 27 13.1 W 35 54 19 29 1004.0 1003.9 0.0
16/02:30pm 35.4 28.7 8.3 19 15.3 W 33 46 18 25 1004.0 1003.9 0.0
16/02:28pm 35.4 30.6 14.1 28 13.1 W 32 46 17 25 1004.0 1003.9 0.0
16/02:00pm 35.7 28.7 4.1 14 16.8 WSW 30 54 16 29 1004.3 1004.2 0.0
16/01:30pm 36.2 28.1 3.4 13 17.2 W 35 57 19 31 1004.7 1004.7 0.0
16/01:03pm 35.4 28.5 4.8 15 16.4 W 30 52 16 28 1005.2 1005.2 0.0
16/01:00pm 34.7 27.5 5.2 16 15.9 W 32 44 17 24 1005.3 1005.3 0.0
16/12:41pm 34.6 27.8 6.8 18 15.3 WSW 32 50 17 27 1005.5 1005.5 0.0
16/12:30pm 34.3 27.2 6.6 18 15.1 WSW 33 44 18 24 1005.8 1005.8 0.0
16/12:00pm 33.0 27.2 7.8 21 14.0 WSW 28 41 15 22 1006.0 1006.0 0.0
16/11:30am 32.8 26.7 8.3 22 13.7 WSW 30 46 16 25 1006.4 1006.4 0.0
16/11:00am 32.0 26.2 9.5 25 12.8 SW 30 43 16 23 1006.9 1006.9 0.0
16/10:30am 30.4 25.0 10.9 30 11.2 SW 30 43 16 23 1007.3 1007.3 0.0
16/10:00am 29.1 23.7 12.1 35 9.9 WSW 32 46 17 25 1007.6 1007.6 0.0
16/09:30am 28.8 23.9 12.7 37 9.5 WSW 30 43 16 23 1007.7 1007.7 0.0
16/09:00am 27.3 22.4 13.6 43 8.1 WSW 32 44 17 24 1007.9 1007.9 0.0
16/08:30am 26.6 21.6 14.0 46 7.5 WSW 33 44 18 24 1008.1 1008.1 0.0
16/08:00am 24.8 20.0 14.0 51 6.4 WSW 32 39 17 21 1008.2 1008.2 0.0
16/07:30am 24.1 20.1 14.2 54 5.8 WSW 28 37 15 20 1008.1 1008.1 0.0
16/07:00am 23.3 19.0 14.3 57 5.3 WSW 30 39 16 21 1007.9 1007.9 0.0
16/06:30am 22.4 18.5 14.3 60 4.7 WSW 28 39 15 21 1007.6 1007.6 0.0
16/06:00am 21.8 17.3 13.9 61 4.6 WSW 30 37 16 20 1007.2 1007.2 0.0
16/05:30am 21.6 16.7 13.8 61 4.5 WSW 32 39 17 21 1006.6 1006.6 0.0
16/05:00am 21.9 17.3 13.5 59 4.9 WSW 30 41 16 22 1006.1 1006.1 0.0
16/04:30am 22.2 18.1 13.8 59 4.9 WSW 28 35 15 19 1005.8 1005.8 0.0
16/04:00am 22.3 18.6 13.9 59 4.9 W 26 33 14 18 1005.3 1005.3 0.0
16/03:30am 22.8 18.7 13.8 57 5.2 WSW 28 39 15 21 1004.8 1004.8 0.0
16/03:00am 23.0 19.0 14.0 57 5.3 WSW 28 39 15 21 1004.6 1004.5 0.0
16/02:30am 23.2 19.6 14.2 57 5.3 WSW 26 35 14 19 1004.5 1004.4 0.0
16/02:00am 23.4 19.5 14.4 57 5.3 WSW 28 35 15 19 1004.4 1004.3 0.0
16/01:30am 23.8 19.0 14.5 56 5.5 W 33 44 18 24 1004.3 1004.2 0.0
16/01:00am 24.2 19.1 14.9 56 5.6 W 35 44 19 24 1004.3 1004.2 0.0
16/12:30am 24.6 19.8 15.5 57 5.5 W 35 46 19 25 1004.3 1004.2 0.0
16/12:00am 25.0 20.4 16.2 58 5.4 W 35 46 19 25 1004.4 1004.3 0.0
 
Date/Time
WST
Temp
°C
App
Temp
°C
Dew
Point
°C
Rel
Hum
%
Delta-T
°C
Wind Press
QNH
hPa
Press
MSL
hPa
Rain since
9am
mm
Dir  Spd
km/h
Gust
km/h
Spd
kts
Gust
kts
15/11:30pm 25.0 22.1 17.0 61 5.0 W 28 39 15 21 1004.4 1004.3 0.0
15/11:00pm 25.5 22.3 17.2 60 5.2 W 30 41 16 22 1004.4 1004.3 0.0
15/10:30pm 25.6 22.7 17.0 59 5.3 W 28 35 15 19 1004.5 1004.4 0.0
15/10:00pm 26.2 22.3 17.0 57 5.7 W 33 44 18 24 1004.2 1004.1 0.0
15/09:30pm 26.5 22.4 17.3 57 5.8 W 35 50 19 27 1004.0 1003.9 0.0
15/09:00pm 26.8 23.2 17.6 57 5.8 W 33 44 18 24 1003.9 1003.8 0.0
15/08:30pm 27.2 23.8 17.7 56 6.0 W 32 44 17 24 1003.6 1003.5 0.0
15/08:00pm 27.8 23.9 17.0 51 6.8 W 33 50 18 27 1003.1 1003.0 0.0
15/07:30pm 28.4 23.9 17.3 51 7.0 W 37 48 20 26 1002.8 1002.7 0.0
15/07:00pm 28.9 24.2 17.7 50 7.1 W 39 50 21 27 1002.5 1002.4 0.0
15/06:50pm 29.2 24.9 17.7 50 7.3 W 37 56 20 30 1002.4 1002.3 0.0
15/06:30pm 30.3 25.2 17.7 46 8.0 WNW 41 52 22 28 1002.1 1002.0 0.0
15/06:00pm 31.9 26.5 17.8 43 9.1 WNW 43 59 23 32 1001.7 1001.6 0.0
15/05:30pm 32.8 27.0 17.4 39 9.9 W 44 57 24 31 1001.2 1001.1 0.0
15/05:00pm 33.5 27.4 17.6 38 10.3 W 46 57 25 31 1000.9 1000.8 0.0
15/04:30pm 34.5 28.4 17.7 37 10.8 WNW 46 59 25 32 1000.7 1000.6 0.0
15/04:00pm 35.5 29.8 18.6 37 11.1 WNW 46 59 25 32 1000.7 1000.6 0.0
15/03:30pm 36.4 31.1 18.5 35 11.7 W 44 59 24 32 1001.0 1000.9 0.0
15/03:00pm 36.7 31.3 17.8 32 12.3 WNW 43 59 23 32 1001.1 1001.0 0.0
15/02:55pm 36.8 32.2 17.9 33 12.3 WNW 39 59 21 32 1001.1 1001.0 0.0
15/02:30pm 36.9 31.5 18.4 33 12.1 WNW 44 57 24 31 1001.5 1001.4 0.0
15/02:00pm 37.7 32.2 17.7 31 13.1 WNW 43 56 23 30 1001.8 1001.7 0.0
15/01:30pm 36.9 32.1 17.5 32 12.6 W 39 52 21 28 1002.2 1002.1 0.0
15/01:09pm 37.4 33.0 15.2 26 14.0 W 32 52 17 28 1002.4 1002.3 0.0
15/01:00pm 37.9 34.1 16.8 29 13.6 W 32 43 17 23 1002.6 1002.5 0.0
15/12:30pm 38.3 31.3 6.1 14 17.8 WSW 32 50 17 27 1002.9 1002.8 0.0
15/12:26pm 38.7 31.8 6.4 14 18.0 WSW 32 50 17 27 1002.8 1002.7 0.0
15/12:00pm 38.0 31.2 7.8 16 17.2 SW 33 46 18 25 1003.3 1003.2 0.0
15/11:30am 37.1 30.6 8.0 17 16.5 WSW 32 50 17 27 1003.8 1003.7 0.0
15/11:00am 36.6 29.4 7.6 17 16.3 WSW 35 48 19 26 1004.3 1004.2 0.0
15/10:30am 35.7 30.6 10.7 22 14.7 WSW 28 46 15 25 1004.8 1004.8 0.0
15/10:24am 35.1 30.3 11.5 24 14.0 WSW 28 46 15 25 1004.9 1004.9 0.0
15/10:00am 33.9 29.1 12.8 28 12.7 WSW 30 43 16 23 1005.3 1005.3 0.0
15/09:30am 32.3 28.3 14.0 33 11.1 WSW 28 37 15 20 1005.6 1005.6 0.0
15/09:00am 31.6 27.7 14.3 35 10.6 WSW 28 37 15 20 1006.0 1006.0 0.0
15/08:30am 29.9 26.1 14.8 39 9.2 WSW 28 35 15 19 1006.0 1006.0 0.0
15/08:00am 28.5 25.6 16.1 47 7.7 WSW 26 35 14 19 1006.0 1006.0 0.0
15/07:30am 26.6 23.4 16.2 52 6.4 WSW 28 37 15 20 1006.0 1006.0 0.0
15/07:00am 25.3 22.1 16.4 57 5.5 WSW 28 35 15 19 1005.7 1005.7 0.0
15/06:30am 24.2 21.1 16.5 62 4.7 WSW 28 35 15 19 1005.5 1005.5 0.0
15/06:00am 23.3 21.0 16.6 66 4.1 W 24 33 13 18 1005.2 1005.2 0.0
15/05:30am 22.9 20.5 16.4 67 4.0 W 24 32 13 17 1005.0 1005.0 0.0
15/05:00am 23.3 21.0 16.6 66 4.1 W 24 30 13 16 1004.6 1004.5 0.0
15/04:30am 23.8 21.5 16.6 64 4.4 W 24 32 13 17 1004.2 1004.1 0.0
15/04:00am 24.1 21.7 16.4 62 4.7 W 24 32 13 17 1003.9 1003.8 0.0
15/03:30am 24.6 21.9 16.6 61 4.9 W 26 35 14 19 1003.6 1003.5 0.0
15/03:00am 24.9 22.1 16.3 59 5.3 W 26 33 14 18 1003.5 1003.4 0.0
15/02:30am 25.3 22.5 16.4 57 5.5 W 26 32 14 17 1003.5 1003.4 0.0
15/02:00am 25.8 23.5 16.6 56 5.7 W 24 32 13 17 1003.6 1003.5 0.0
15/01:30am 26.0 23.6 17.4 59 5.4 W 26 35 14 19 1003.8 1003.7 0.0
15/01:00am 26.3 24.4 17.6 58 5.5 W 24 32 13 17 1004.0 1003.9 0.0
15/12:30am 26.5 23.5 17.8 58 5.5 W 30 37 16 20 1004.1 1004.0 0.0
15/12:00am 26.7 23.9 18.3 60 5.4 W 30 39 16 21 1004.4 1004.3 0.0
 
Date/Time
WST
Temp
°C
App
Temp
°C
Dew
Point
°C
Rel
Hum
%
Delta-T
°C
Wind Press
QNH
hPa
Press
MSL
hPa
Rain since
9am
mm
Dir  Spd
km/h
Gust
km/h
Spd
kts
Gust
kts
14/11:30pm 27.0 24.6 18.3 59 5.5 W 28 39 15 21 1004.8 1004.8 0.0
14/11:00pm 27.5 24.7 18.2 57 5.9 W 30 37 16 20 1005.0 1005.0 0.0
14/10:30pm 28.2 25.4 18.3 55 6.3 W 30 41 16 22 1004.9 1004.9 0.0
14/10:00pm 28.8 26.3 18.0 52 6.9 W 28 43 15 23 1005.0 1005.0 0.0
14/09:30pm 29.3 25.5 17.2 48 7.6 W 33 43 18 23 1004.8 1004.8 0.0
14/09:00pm 30.5 25.5 15.0 39 9.5 W 35 44 19 24 1004.6 1004.5 0.0
14/08:30pm 31.3 26.0 13.1 33 10.9 W 33 44 18 24 1004.4 1004.3 0.0
14/08:00pm 31.9 27.1 14.1 34 10.9 W 32 39 17 21 1004.1 1004.0 0.0
14/07:30pm 32.5 27.3 15.5 36 10.6 W 37 46 20 25 1003.7 1003.6 0.0
14/07:00pm 33.9 28.8 15.8 33 11.4 W 37 46 20 25 1003.4 1003.3 0.0
14/06:30pm 35.3 30.1 16.6 33 11.9 W 39 48 21 26 1002.9 1002.8 0.0

Other Formats:

Comma delimited format used in spreadsheet applications
http://www.bom.gov.au/fwo/IDW60801/IDW60801.94308.axf

JavaScript Object Notation format (JSON) in row-major order
http://www.bom.gov.au/fwo/IDW60801/IDW60801.94308.json